Time;durP1;ratioP1;P1;durP2;ratioP2;P2;SDS_P1;SDS_P2;PMS_P1;PMS_P2;Temp;Humidity;BMP_temperature;BMP_pressure;BME280_temperature;BME280_humidity;BME280_pressure;Samples;Min_cycle;Max_cycle;Signal;HPM_P1;HPM_P2
2019/04/10 00:02:19;;;;;;;64;55;;;;;;;;;;;;;
2019/04/10 00:04:44;;;;;;;63.7;55.8;;;;;;;;;;;;;
2019/04/10 00:07:09;;;;;;;65.6;55.8;;;;;;;;;;;;;
2019/04/10 00:09:34;;;;;;;68;59.1;;;;;;;;;;;;;
2019/04/10 00:11:59;;;;;;;66.4;57.2;;;;;;;;;;;;;
2019/04/10 00:14:24;;;;;;;66.6;57.5;;;;;;;;;;;;;
2019/04/10 00:16:50;;;;;;;70;58.8;;;;;;;;;;;;;
2019/04/10 00:19:15;;;;;;;70.4;60.8;;;;;;;;;;;;;
2019/04/10 00:21:40;;;;;;;67.4;57.1;;;;;;;;;;;;;
2019/04/10 00:24:05;;;;;;;66.4;58.3;;;;;;;;;;;;;
2019/04/10 00:26:30;;;;;;;78.9;66;;;;;;;;;;;;;
2019/04/10 00:28:56;;;;;;;78.3;64.2;;;;;;;;;;;;;
2019/04/10 00:31:21;;;;;;;77.5;63.6;;;;;;;;;;;;;
2019/04/10 00:33:46;;;;;;;75.4;62.7;;;;;;;;;;;;;
2019/04/10 00:36:11;;;;;;;76.5;62;;;;;;;;;;;;;
2019/04/10 00:38:36;;;;;;;76;63.6;;;;;;;;;;;;;
2019/04/10 00:41:01;;;;;;;74;62.7;;;;;;;;;;;;;
2019/04/10 00:43:26;;;;;;;75.5;62;;;;;;;;;;;;;
2019/04/10 00:45:51;;;;;;;83;68.4;;;;;;;;;;;;;
2019/04/10 00:48:16;;;;;;;78.9;63.7;;;;;;;;;;;;;
2019/04/10 00:50:42;;;;;;;81.5;66;;;;;;;;;;;;;
2019/04/10 00:53:07;;;;;;;86.3;69.5;;;;;;;;;;;;;
2019/04/10 00:55:32;;;;;;;80.3;66.7;;;;;;;;;;;;;
2019/04/10 00:57:57;;;;;;;78.5;64.5;;;;;;;;;;;;;
2019/04/10 01:00:22;;;;;;;77.6;65.3;;;;;;;;;;;;;
2019/04/10 01:02:47;;;;;;;77.4;65;;;;;;;;;;;;;
2019/04/10 01:05:12;;;;;;;78.7;65.3;;;;;;;;;;;;;
2019/04/10 01:07:38;;;;;;;79.3;64;;;;;;;;;;;;;
2019/04/10 01:10:03;;;;;;;85;68.9;;;;;;;;;;;;;
2019/04/10 01:12:28;;;;;;;78.3;64.9;;;;;;;;;;;;;
2019/04/10 01:14:53;;;;;;;79.8;65;;;;;;;;;;;;;
2019/04/10 01:17:18;;;;;;;82.4;67.3;;;;;;;;;;;;;
2019/04/10 01:19:43;;;;;;;75.4;63.1;;;;;;;;;;;;;
2019/04/10 01:22:08;;;;;;;81.7;67.1;;;;;;;;;;;;;
2019/04/10 01:24:33;;;;;;;78.6;65.6;;;;;;;;;;;;;
2019/04/10 01:26:58;;;;;;;77.7;63.9;;;;;;;;;;;;;
2019/04/10 01:29:23;;;;;;;78.5;67.4;;;;;;;;;;;;;
2019/04/10 01:31:48;;;;;;;72.6;60.9;;;;;;;;;;;;;
2019/04/10 01:34:14;;;;;;;78.9;65.4;;;;;;;;;;;;;
2019/04/10 01:36:39;;;;;;;75;63.4;;;;;;;;;;;;;
2019/04/10 01:39:06;;;;;;;70.6;59.2;;;;;;;;;;;;;
2019/04/10 01:41:30;;;;;;;71.3;59.9;;;;;;;;;;;;;
2019/04/10 01:43:55;;;;;;;71.7;60.6;;;;;;;;;;;;;
2019/04/10 01:46:20;;;;;;;66.6;56.9;;;;;;;;;;;;;
2019/04/10 01:48:45;;;;;;;71.6;60.7;;;;;;;;;;;;;
2019/04/10 01:51:10;;;;;;;69.8;59.2;;;;;;;;;;;;;
2019/04/10 01:53:36;;;;;;;67.1;58.3;;;;;;;;;;;;;
2019/04/10 01:56:01;;;;;;;72;61.1;;;;;;;;;;;;;
2019/04/10 01:58:26;;;;;;;73.3;59.5;;;;;;;;;;;;;
2019/04/10 02:01:05;;;;;;;75.4;61.3;;;;;;;;;;;;;
2019/04/10 02:03:16;;;;;;;71.5;59.5;;;;;;;;;;;;;
2019/04/10 02:05:41;;;;;;;69.9;59.6;;;;;;;;;;;;;
2019/04/10 02:08:06;;;;;;;67.3;56.2;;;;;;;;;;;;;
2019/04/10 02:10:31;;;;;;;63.4;54.9;;;;;;;;;;;;;
2019/04/10 02:12:57;;;;;;;65.2;55.1;;;;;;;;;;;;;
2019/04/10 02:15:22;;;;;;;66.2;56;;;;;;;;;;;;;
2019/04/10 02:17:47;;;;;;;68.2;55;;;;;;;;;;;;;
2019/04/10 02:20:12;;;;;;;66;56.4;;;;;;;;;;;;;
2019/04/10 02:22:37;;;;;;;70.8;56.8;;;;;;;;;;;;;
2019/04/10 02:25:02;;;;;;;69.6;57.9;;;;;;;;;;;;;
2019/04/10 02:27:27;;;;;;;66.4;55.5;;;;;;;;;;;;;
2019/04/10 02:29:52;;;;;;;68.1;56.5;;;;;;;;;;;;;
2019/04/10 02:32:18;;;;;;;69.7;58;;;;;;;;;;;;;
2019/04/10 02:34:43;;;;;;;68.6;56.4;;;;;;;;;;;;;
2019/04/10 02:37:08;;;;;;;70.2;56.9;;;;;;;;;;;;;
2019/04/10 02:39:33;;;;;;;66.9;57.4;;;;;;;;;;;;;
2019/04/10 02:41:59;;;;;;;70.2;58.9;;;;;;;;;;;;;
2019/04/10 02:44:24;;;;;;;70.9;60.5;;;;;;;;;;;;;
2019/04/10 02:46:49;;;;;;;69.8;59.2;;;;;;;;;;;;;
2019/04/10 02:49:15;;;;;;;76.5;61.9;;;;;;;;;;;;;
2019/04/10 02:51:40;;;;;;;77.2;65.1;;;;;;;;;;;;;
2019/04/10 02:54:05;;;;;;;80.1;65.5;;;;;;;;;;;;;
2019/04/10 02:56:30;;;;;;;76.2;61.7;;;;;;;;;;;;;
2019/04/10 02:58:55;;;;;;;76.5;64.3;;;;;;;;;;;;;
2019/04/10 03:01:20;;;;;;;74.4;62.8;;;;;;;;;;;;;
2019/04/10 03:03:45;;;;;;;73.5;63.5;;;;;;;;;;;;;
2019/04/10 03:06:10;;;;;;;75.3;62.9;;;;;;;;;;;;;
2019/04/10 03:08:36;;;;;;;74.6;64.3;;;;;;;;;;;;;
2019/04/10 03:11:01;;;;;;;76.7;65.2;;;;;;;;;;;;;
2019/04/10 03:13:26;;;;;;;78.8;65;;;;;;;;;;;;;
2019/04/10 03:15:51;;;;;;;78.7;66.5;;;;;;;;;;;;;
2019/04/10 03:18:16;;;;;;;80.9;68.2;;;;;;;;;;;;;
2019/04/10 03:20:41;;;;;;;76.8;62.9;;;;;;;;;;;;;
2019/04/10 03:23:06;;;;;;;78.8;66.2;;;;;;;;;;;;;
2019/04/10 03:25:32;;;;;;;81.1;67.5;;;;;;;;;;;;;
2019/04/10 03:27:56;;;;;;;80.1;68;;;;;;;;;;;;;
2019/04/10 03:30:22;;;;;;;80.8;68.4;;;;;;;;;;;;;
2019/04/10 03:32:55;;;;;;;83.5;67.7;;;;;;;;;;;;;
2019/04/10 03:35:17;;;;;;;78.2;65.1;;;;;;;;;;;;;
2019/04/10 03:37:37;;;;;;;79.3;67.9;;;;;;;;;;;;;
2019/04/10 03:40:02;;;;;;;78.6;66.8;;;;;;;;;;;;;
2019/04/10 03:42:27;;;;;;;80.6;69.2;;;;;;;;;;;;;
2019/04/10 03:44:52;;;;;;;81.7;66.8;;;;;;;;;;;;;
2019/04/10 03:47:17;;;;;;;80.8;69.1;;;;;;;;;;;;;
2019/04/10 03:49:42;;;;;;;81;66.9;;;;;;;;;;;;;
2019/04/10 03:52:07;;;;;;;80.7;67.7;;;;;;;;;;;;;
2019/04/10 03:54:32;;;;;;;81.9;68.7;;;;;;;;;;;;;
2019/04/10 03:56:57;;;;;;;75.4;63.4;;;;;;;;;;;;;
2019/04/10 03:59:22;;;;;;;81;68.5;;;;;;;;;;;;;
2019/04/10 04:02:29;;;;;;;75.6;64.8;;;;;;;8.92;85.47363;951.6819;;;;
2019/04/10 04:04:54;;;;;;;76.4;65.4;;;;;;;8.9;85.49316;951.6531;;;;
2019/04/10 04:07:19;;;;;;;76.4;66.1;;;;;;;8.87;84.23633;951.6429;;;;
2019/04/10 04:09:44;;;;;;;77.5;64.9;;;;;;;8.96;83.52148;951.6603;;;;
2019/04/10 04:12:09;;;;;;;81;65.7;;;;;;;8.85;84.77148;951.6401;;;;
2019/04/10 04:14:34;;;;;;;76.4;65.1;;;;;;;8.76;84.67383;951.6228;;;;
2019/04/10 04:16:59;;;;;;;78.5;66.6;;;;;;;8.77;85.22754;951.6564;;;;
2019/04/10 04:19:24;;;;;;;78.4;65.9;;;;;;;8.78;84.6543;951.5996;;;;
2019/04/10 04:21:50;;;;;;;80.5;67.8;;;;;;;8.66;83.59961;951.6883;;;;
2019/04/10 04:24:15;;;;;;;80;68.5;;;;;;;8.65;85.94922;951.6071;;;;
2019/04/10 04:26:41;;;;;;;81.3;70.1;;;;;;;8.72;85.9707;951.6703;;;;
2019/04/10 04:29:06;;;;;;;79.8;68.6;;;;;;;8.7;85.77441;951.6545;;;;
2019/04/10 04:31:31;;;;;;;80.8;68.1;;;;;;;8.65;84.98242;951.6597;;;;
2019/04/10 04:33:56;;;;;;;79.3;68.4;;;;;;;8.59;85.21289;951.6175;;;;
2019/04/10 04:36:21;;;;;;;79.5;68.8;;;;;;;8.56;85.27441;951.6594;;;;
2019/04/10 04:38:46;;;;;;;78.8;66.9;;;;;;;8.59;85.56641;951.6524;;;;
2019/04/10 04:41:11;;;;;;;76.7;64.6;;;;;;;8.75;85.2793;951.6975;;;;
2019/04/10 04:43:36;;;;;;;78.6;65.6;;;;;;;8.63;84.38574;951.657;;;;
2019/04/10 04:46:02;;;;;;;81.3;67.8;;;;;;;8.52;85.31543;951.6708;;;;
2019/04/10 04:48:27;;;;;;;83.1;71.9;;;;;;;8.55;86.30566;951.6898;;;;
2019/04/10 04:50:52;;;;;;;77.8;65.6;;;;;;;8.59;84.73145;951.6736;;;;
2019/04/10 04:53:17;;;;;;;80.3;67.8;;;;;;;8.61;85.25098;951.715;;;;
2019/04/10 04:55:42;;;;;;;75.5;64.1;;;;;;;8.63;84.92188;951.7438;;;;
2019/04/10 04:58:07;;;;;;;78.7;66.2;;;;;;;8.57;84.87891;951.7399;;;;
2019/04/10 05:00:32;;;;;;;76.7;64.3;;;;;;;8.61;84.92969;951.8059;;;;
2019/04/10 05:02:57;;;;;;;76.6;64;;;;;;;8.59;83.83789;951.8165;;;;
2019/04/10 05:05:22;;;;;;;69.1;60.6;;;;;;;8.64;84.30469;951.7991;;;;
2019/04/10 05:07:47;;;;;;;68;58.2;;;;;;;8.62;82.98535;951.8307;;;;
2019/04/10 05:10:12;;;;;;;72.9;61.1;;;;;;;8.6;84.35742;951.8588;;;;
2019/04/10 05:12:37;;;;;;;69.9;60.6;;;;;;;8.57;84.63672;951.8875;;;;
2019/04/10 05:15:03;;;;;;;69.6;58.1;;;;;;;8.57;83.0459;951.8957;;;;
2019/04/10 05:17:28;;;;;;;64.1;54.6;;;;;;;8.66;82.4541;951.9099;;;;
2019/04/10 05:19:53;;;;;;;58.5;50.8;;;;;;;8.74;80.8418;951.9631;;;;
2019/04/10 05:22:18;;;;;;;51.7;46;;;;;;;8.81;77.07324;951.9387;;;;
2019/04/10 05:24:43;;;;;;;55.7;46.7;;;;;;;8.65;78.90039;951.9626;;;;
2019/04/10 05:27:08;;;;;;;50.9;43.9;;;;;;;8.75;77.82813;952.0142;;;;
2019/04/10 05:29:33;;;;;;;50.8;43.7;;;;;;;8.71;77.49121;951.944;;;;
2019/04/10 05:31:58;;;;;;;52.1;44.2;;;;;;;8.59;77.60547;952.0284;;;;
2019/04/10 05:34:23;;;;;;;50.2;41.9;;;;;;;8.7;76.86914;952.0403;;;;
2019/04/10 05:36:49;;;;;;;48.2;42.5;;;;;;;8.69;77.13086;952.0971;;;;
2019/04/10 05:39:14;;;;;;;51.2;43.6;;;;;;;8.6;79.24609;952.0366;;;;
2019/04/10 05:41:39;;;;;;;50.4;44.9;;;;;;;8.56;79.34082;952.0751;;;;
2019/04/10 05:44:04;;;;;;;54.4;44.7;;;;;;;8.54;79.17676;952.0641;;;;
2019/04/10 05:46:29;;;;;;;54;45.1;;;;;;;8.68;80.16602;952.1247;;;;
2019/04/10 05:48:54;;;;;;;48.4;43.1;;;;;;;8.65;79.18652;952.1097;;;;
2019/04/10 05:51:20;;;;;;;48.9;41.2;;;;;;;8.78;77.06836;952.0715;;;;
2019/04/10 05:53:56;;;;;;;48.6;41.8;;;;;;;8.74;76.89941;952.0842;;;;
2019/04/10 05:56:21;;;;;;;47.1;40.1;;;;;;;8.84;75.1748;952.0536;;;;
2019/04/10 05:58:47;;;;;;;45.8;40;;;;;;;8.78;75.13086;952.0976;;;;
2019/04/10 06:01:12;;;;;;;47.9;39.7;;;;;;;8.82;74.85059;952.133;;;;
2019/04/10 06:03:37;;;;;;;47.7;41.3;;;;;;;8.7;76.39941;952.1183;;;;
2019/04/10 06:06:02;;;;;;;47.2;40.6;;;;;;;8.67;76.38281;952.1252;;;;
2019/04/10 06:08:28;;;;;;;47.7;40.9;;;;;;;8.81;75.70898;952.1337;;;;
2019/04/10 06:10:53;;;;;;;46.4;40.8;;;;;;;8.8;75.86816;952.1174;;;;
2019/04/10 06:13:18;;;;;;;47.9;40.4;;;;;;;8.85;75.09668;952.139;;;;
2019/04/10 06:15:43;;;;;;;49.5;42.1;;;;;;;8.79;76.64453;952.1317;;;;
2019/04/10 06:18:08;;;;;;;47.3;41.8;;;;;;;8.82;76.01855;952.2068;;;;
2019/04/10 06:20:33;;;;;;;49.6;42.3;;;;;;;8.79;76.08203;952.1057;;;;
2019/04/10 06:22:59;;;;;;;46.3;39.9;;;;;;;8.95;74.11621;952.108;;;;
2019/04/10 06:25:24;;;;;;;47.6;40.8;;;;;;;9;73.4375;952.0857;;;;
2019/04/10 06:27:49;;;;;;;47.1;39.7;;;;;;;8.98;73.50293;952.1181;;;;
2019/04/10 06:30:14;;;;;;;47;40.2;;;;;;;8.99;73.61719;952.1394;;;;
2019/04/10 06:32:39;;;;;;;49.8;40.4;;;;;;;9.01;73.4502;952.1331;;;;
2019/04/10 06:35:04;;;;;;;45.3;40.2;;;;;;;8.89;73.87695;952.1609;;;;
2019/04/10 06:37:29;;;;;;;47.4;41.5;;;;;;;8.92;74.48926;952.1498;;;;
2019/04/10 06:39:54;;;;;;;47.3;40.7;;;;;;;9.07;73.77051;952.1316;;;;
2019/04/10 06:42:19;;;;;;;48.8;41.5;;;;;;;9.06;73.24023;952.1458;;;;
2019/04/10 06:44:44;;;;;;;49.2;41.8;;;;;;;9.1;74.01563;952.1067;;;;
2019/04/10 06:47:10;;;;;;;48.1;41.3;;;;;;;9.14;74.04492;952.1079;;;;
2019/04/10 06:49:35;;;;;;;47.4;40.9;;;;;;;9.18;73.1123;952.1297;;;;
2019/04/10 06:52:00;;;;;;;48.1;41.6;;;;;;;9.27;73.32227;952.1345;;;;
2019/04/10 06:54:25;;;;;;;50.9;43.3;;;;;;;9.14;73.87402;952.1331;;;;
2019/04/10 06:56:50;;;;;;;47.8;41.2;;;;;;;9.29;73.1416;952.0804;;;;
2019/04/10 06:59:22;;;;;;;47.2;41.4;;;;;;;9.32;73.35449;952.1295;;;;
2019/04/10 07:01:47;;;;;;;48.5;42.7;;;;;;;9.1;74.19922;952.1326;;;;
2019/04/10 07:04:12;;;;;;;46.9;39.8;;;;;;;9.36;73.1543;952.1088;;;;
2019/04/10 07:06:37;;;;;;;47.5;42.3;;;;;;;9.43;72.76465;952.1456;;;;
2019/04/10 07:09:04;;;;;;;51.7;41.2;;;;;;;9.46;72.66504;952.1426;;;;
2019/04/10 07:11:27;;;;;;;46.3;40.4;;;;;;;9.48;71.81934;952.1752;;;;
2019/04/10 07:13:53;;;;;;;52.8;43.4;;;;;;;9.46;74.07715;952.1295;;;;
2019/04/10 07:16:19;;;;;;;46.8;40.2;;;;;;;9.66;72.27344;952.1364;;;;
2019/04/10 07:18:44;;;;;;;45.5;39.7;;;;;;;9.77;71.05078;952.1783;;;;
2019/04/10 07:21:09;;;;;;;47.2;40.2;;;;;;;9.81;70.33594;952.2692;;;;
2019/04/10 07:23:34;;;;;;;47.7;41.6;;;;;;;9.71;71.08789;952.2274;;;;
2019/04/10 07:25:59;;;;;;;44.7;39.9;;;;;;;9.77;70.53711;952.3077;;;;
2019/04/10 07:28:24;;;;;;;45.3;39.7;;;;;;;9.77;70.2373;952.2996;;;;
2019/04/10 07:30:49;;;;;;;47.1;40.9;;;;;;;9.73;71.64258;952.269;;;;
2019/04/10 07:33:14;;;;;;;48.2;40.2;;;;;;;9.97;69.93555;952.2886;;;;
2019/04/10 07:35:41;;;;;;;45.1;40.2;;;;;;;9.99;69.62793;952.3259;;;;
2019/04/10 07:38:06;;;;;;;47.8;42.4;;;;;;;9.78;70.8125;952.3201;;;;
2019/04/10 07:40:31;;;;;;;49.5;43.1;;;;;;;9.79;72.2959;952.3364;;;;
2019/04/10 07:42:56;;;;;;;47.3;40.9;;;;;;;10;71.05469;952.3516;;;;
2019/04/10 07:45:22;;;;;;;47.9;42.7;;;;;;;10.02;71.4375;952.4011;;;;
2019/04/10 07:47:47;;;;;;;48.8;41.9;;;;;;;10.14;70.43457;952.4202;;;;
2019/04/10 07:50:12;;;;;;;44.6;39.7;;;;;;;10.18;71.00391;952.3856;;;;
2019/04/10 07:52:37;;;;;;;48.4;42.5;;;;;;;10.14;72.46973;952.4202;;;;
2019/04/10 07:55:02;;;;;;;50.9;42.7;;;;;;;10.29;72.8291;952.4364;;;;
2019/04/10 07:57:28;;;;;;;45.2;40.3;;;;;;;10.47;71.14355;952.4403;;;;
2019/04/10 07:59:53;;;;;;;52.7;43.3;;;;;;;10.56;71.78125;952.4526;;;;
2019/04/10 08:02:18;;;;;;;46.1;40.5;;;;;;;10.65;69.18262;952.5176;;;;
2019/04/10 08:04:43;;;;;;;49.3;42.8;;;;;;;10.71;72.38184;952.5726;;;;
2019/04/10 08:07:08;;;;;;;48.6;41.4;;;;;;;10.73;70.07031;952.597;;;;
2019/04/10 08:09:33;;;;;;;46.2;40.2;;;;;;;10.62;69.9248;952.608;;;;
2019/04/10 08:11:58;;;;;;;48.1;41.6;;;;;;;10.58;68.80273;952.5813;;;;
2019/04/10 08:14:24;;;;;;;46.3;41.3;;;;;;;10.59;70.13965;952.5719;;;;
2019/04/10 08:16:49;;;;;;;48.1;41.3;;;;;;;10.56;69.74414;952.5569;;;;
2019/04/10 08:19:16;;;;;;;48.9;41.4;;;;;;;10.8;69.89746;952.5895;;;;
2019/04/10 08:21:41;;;;;;;44.4;39.5;;;;;;;10.92;67.90234;952.5994;;;;
2019/04/10 08:24:06;;;;;;;46.3;41.2;;;;;;;10.83;69.64844;952.5564;;;;
2019/04/10 08:26:31;;;;;;;47.1;39.9;;;;;;;10.94;67.91504;952.6498;;;;
2019/04/10 08:28:56;;;;;;;43.1;38.2;;;;;;;10.99;66.67969;952.6184;;;;
2019/04/10 08:31:21;;;;;;;47.2;41.6;;;;;;;11.02;66.97266;952.6284;;;;
2019/04/10 08:33:46;;;;;;;48.9;42.3;;;;;;;10.85;68.65137;952.6842;;;;
2019/04/10 08:36:11;;;;;;;50.8;41.3;;;;;;;10.81;69.24414;952.6881;;;;
2019/04/10 08:38:37;;;;;;;45.4;39.2;;;;;;;11.03;67.18066;952.7539;;;;
2019/04/10 08:41:02;;;;;;;51.1;42.4;;;;;;;10.96;67.90625;952.7478;;;;
2019/04/10 08:43:27;;;;;;;47.1;40.8;;;;;;;10.95;67.42285;952.6705;;;;
2019/04/10 08:45:52;;;;;;;49.7;41.3;;;;;;;11.04;67.34277;952.7313;;;;
2019/04/10 08:48:17;;;;;;;48;41;;;;;;;11.06;66.54102;952.7068;;;;
2019/04/10 08:50:42;;;;;;;46.4;41.4;;;;;;;11.04;67.59766;952.7354;;;;
2019/04/10 08:53:08;;;;;;;50.6;43.4;;;;;;;11.07;68.43164;952.7544;;;;
2019/04/10 08:55:33;;;;;;;46.1;40.3;;;;;;;11.2;67.04688;952.7885;;;;
2019/04/10 08:57:59;;;;;;;46.7;41.6;;;;;;;11.34;66.80273;952.7188;;;;
2019/04/10 09:00:24;;;;;;;45.8;40.1;;;;;;;11.59;66.73828;952.7838;;;;
2019/04/10 09:02:49;;;;;;;48;41.1;;;;;;;11.5;66.32031;952.7891;;;;
2019/04/10 09:05:14;;;;;;;45.1;39.4;;;;;;;11.55;65.94727;952.7706;;;;
2019/04/10 09:07:40;;;;;;;44.2;38.8;;;;;;;11.44;66.58887;952.7472;;;;
2019/04/10 09:10:05;;;;;;;48.7;41.8;;;;;;;11.49;66.40039;952.7809;;;;
2019/04/10 09:12:30;;;;;;;47.7;42.5;;;;;;;11.45;67.06152;952.8328;;;;
2019/04/10 09:14:55;;;;;;;45.8;40.6;;;;;;;11.67;66.72656;952.8322;;;;
2019/04/10 09:17:20;;;;;;;45.9;40.9;;;;;;;11.71;66.12109;952.8372;;;;
2019/04/10 09:19:45;;;;;;;45.6;40.5;;;;;;;11.93;66.77832;952.8406;;;;
2019/04/10 09:22:11;;;;;;;47;40;;;;;;;12.14;65.125;952.7969;;;;
2019/04/10 09:24:36;;;;;;;48;42.4;;;;;;;12.17;65.18555;952.851;;;;
2019/04/10 09:27:01;;;;;;;50.1;42.8;;;;;;;12.01;65.90039;952.8287;;;;
2019/04/10 09:29:26;;;;;;;49.9;42.4;;;;;;;11.98;64.97266;952.853;;;;
2019/04/10 09:31:51;;;;;;;46.5;39.2;;;;;;;12.15;65.19531;952.8265;;;;
2019/04/10 09:34:17;;;;;;;46.9;39.7;;;;;;;12.27;64.0918;952.8055;;;;
2019/04/10 09:36:42;;;;;;;50.4;42.6;;;;;;;12.31;64.53809;952.866;;;;
2019/04/10 09:39:07;;;;;;;46.3;40.8;;;;;;;12.19;66.23926;952.7922;;;;
2019/04/10 09:41:33;;;;;;;48.1;42;;;;;;;12.29;64.15234;952.8903;;;;
2019/04/10 09:43:58;;;;;;;49.1;41.6;;;;;;;12.31;63.6709;952.892;;;;
2019/04/10 09:46:24;;;;;;;48.4;42.6;;;;;;;12.14;64.92676;952.8672;;;;
2019/04/10 09:48:49;;;;;;;50.1;42.1;;;;;;;12.33;64.11328;952.8464;;;;
2019/04/10 09:51:14;;;;;;;48.7;43.4;;;;;;;11.93;66.03906;952.8586;;;;
2019/04/10 09:53:39;;;;;;;48;42.7;;;;;;;11.96;65.66211;952.8856;;;;
2019/04/10 09:56:04;;;;;;;53.4;43.5;;;;;;;11.98;65.62012;952.8742;;;;
2019/04/10 09:58:30;;;;;;;48.3;42.6;;;;;;;11.98;65.23926;952.835;;;;
2019/04/10 10:00:56;;;;;;;48.3;41.7;;;;;;;12.01;65.7627;952.9062;;;;
2019/04/10 10:03:20;;;;;;;46.9;41.2;;;;;;;12.16;64.60742;952.882;;;;
2019/04/10 10:05:46;;;;;;;49.3;44;;;;;;;12.19;67.04883;952.8094;;;;
2019/04/10 10:08:11;;;;;;;46.1;41;;;;;;;12.13;64.8916;952.8158;;;;
2019/04/10 10:10:36;;;;;;;47.8;41.4;;;;;;;12.05;64.68457;952.88;;;;
2019/04/10 10:13:06;;;;;;;48.3;43.1;;;;;;;12.01;64.46973;952.8328;;;;
2019/04/10 10:15:31;;;;;;;47.7;42.6;;;;;;;12.17;63.91602;952.8853;;;;
2019/04/10 10:17:56;;;;;;;49.8;44.4;;;;;;;12.15;64.28125;952.8707;;;;
2019/04/10 10:20:21;;;;;;;52.8;45;;;;;;;11.88;65.76563;952.9288;;;;
2019/04/10 10:22:46;;;;;;;50.6;45;;;;;;;11.83;65.42383;952.8727;;;;
2019/04/10 10:25:11;;;;;;;52.4;45.2;;;;;;;11.96;66.89941;952.9199;;;;
2019/04/10 10:27:37;;;;;;;51.7;44.8;;;;;;;12.15;64.13184;952.8315;;;;
2019/04/10 10:30:02;;;;;;;49.7;44.4;;;;;;;12.13;65.11035;952.9023;;;;
2019/04/10 10:32:27;;;;;;;52.7;46.6;;;;;;;11.9;65.7334;952.8918;;;;
2019/04/10 10:34:52;;;;;;;54;46.3;;;;;;;11.78;66.45605;952.8904;;;;
2019/04/10 10:37:17;;;;;;;51;45.5;;;;;;;11.93;66.41992;952.8627;;;;
2019/04/10 10:39:42;;;;;;;51.8;46.1;;;;;;;11.94;66.04102;952.8621;;;;
2019/04/10 10:42:07;;;;;;;55.7;47.3;;;;;;;12.2;64.98242;952.8477;;;;
2019/04/10 10:44:32;;;;;;;52.2;45.5;;;;;;;12.22;64.17773;952.9058;;;;
2019/04/10 10:46:57;;;;;;;50.7;45.1;;;;;;;12.07;65.05664;952.8786;;;;
2019/04/10 10:49:22;;;;;;;51.9;44.6;;;;;;;12.21;66.38184;952.9116;;;;
2019/04/10 10:51:47;;;;;;;53.1;47;;;;;;;12.19;65.79102;952.9352;;;;
2019/04/10 10:54:12;;;;;;;52.4;46.9;;;;;;;12.2;64.84375;952.9915;;;;
2019/04/10 10:56:38;;;;;;;57.9;47.6;;;;;;;12.14;65.80664;952.8925;;;;
2019/04/10 10:59:03;;;;;;;55.3;46.7;;;;;;;12.21;65.9082;952.9819;;;;
2019/04/10 11:01:28;;;;;;;53.1;47.5;;;;;;;12.29;65.13379;952.9647;;;;
2019/04/10 11:03:53;;;;;;;54.2;48.2;;;;;;;12.3;64.50098;952.916;;;;
2019/04/10 11:06:18;;;;;;;54;48.4;;;;;;;12.38;65.32324;952.933;;;;
2019/04/10 11:08:43;;;;;;;57;48.9;;;;;;;12.39;63.79688;952.9021;;;;
2019/04/10 11:11:08;;;;;;;55.6;49.6;;;;;;;12.48;64.41211;952.9447;;;;
2019/04/10 11:13:33;;;;;;;55.4;49.4;;;;;;;12.71;64.84961;952.9029;;;;
2019/04/10 11:15:59;;;;;;;54.7;48.7;;;;;;;12.9;61.88184;952.9128;;;;
2019/04/10 11:18:24;;;;;;;55.3;49.2;;;;;;;12.89;63.55957;952.9177;;;;
2019/04/10 11:20:49;;;;;;;54.3;48.6;;;;;;;12.86;65.52148;952.9297;;;;
2019/04/10 11:23:14;;;;;;;57.1;50.8;;;;;;;13.06;65.43555;952.9084;;;;
2019/04/10 11:25:39;;;;;;;55;49.2;;;;;;;13.18;64.50488;952.9473;;;;
2019/04/10 11:28:04;;;;;;;56.3;50.4;;;;;;;13.18;63.99414;952.8959;;;;
2019/04/10 11:30:30;;;;;;;54.5;48.6;;;;;;;13.08;63.36621;952.8414;;;;
2019/04/10 11:32:56;;;;;;;55.9;49.9;;;;;;;13.06;62.92383;952.8872;;;;
2019/04/10 11:35:21;;;;;;;55.4;49.4;;;;;;;13.07;62.7627;952.8722;;;;
2019/04/10 11:37:46;;;;;;;56;48.9;;;;;;;13.29;63.10645;952.928;;;;
2019/04/10 11:40:22;;;;;;;53.6;47.8;;;;;;;13.51;62.78027;952.8995;;;;
2019/04/10 11:42:50;;;;;;;53.3;47.7;;;;;;;13.58;61.30664;952.8822;;;;
2019/04/10 11:45:16;;;;;;;53.8;48;;;;;;;13.78;60.58203;952.9384;;;;
2019/04/10 11:47:41;;;;;;;52.6;46.9;;;;;;;14.1;58.21387;952.8945;;;;
2019/04/10 11:50:06;;;;;;;53.7;47.8;;;;;;;13.84;59.7207;952.8842;;;;
2019/04/10 11:52:33;;;;;;;58.7;51.6;;;;;;;13.72;60.6543;952.9674;;;;
2019/04/10 11:54:58;;;;;;;52.6;47.1;;;;;;;13.84;59.78906;952.9587;;;;
2019/04/10 11:57:23;;;;;;;53.7;47.8;;;;;;;13.87;61.82227;952.9512;;;;
2019/04/10 11:59:48;;;;;;;55.7;49.9;;;;;;;14.17;61.00684;952.8775;;;;
2019/04/10 12:02:13;;;;;;;49.9;44.6;;;;;;;14.47;56.84473;952.9486;;;;
2019/04/10 12:04:38;;;;;;;50.7;45.4;;;;;;;14.48;56.95117;952.9127;;;;
2019/04/10 12:07:03;;;;;;;52.7;46.9;;;;;;;14.12;58.40137;952.9313;;;;
2019/04/10 12:09:28;;;;;;;53.2;46.6;;;;;;;13.95;59.71191;952.9813;;;;
2019/04/10 12:11:53;;;;;;;52.2;46.7;;;;;;;13.97;59.2959;952.9401;;;;
2019/04/10 12:14:19;;;;;;;55.2;48.8;;;;;;;14.02;60.73047;952.9734;;;;
2019/04/10 12:16:44;;;;;;;53.7;47;;;;;;;14.02;59.37402;952.9684;;;;
2019/04/10 12:19:09;;;;;;;52.8;47.2;;;;;;;13.89;58.28809;953.0627;;;;
2019/04/10 12:21:34;;;;;;;51.5;45.9;;;;;;;13.92;58.49023;953.019;;;;
2019/04/10 12:23:59;;;;;;;53.5;47.6;;;;;;;14;60.68164;952.9975;;;;
2019/04/10 12:26:24;;;;;;;56.2;50;;;;;;;14.18;60.66016;953.0258;;;;
2019/04/10 12:28:51;;;;;;;53.1;47.4;;;;;;;14.26;58.86035;953.0769;;;;
2019/04/10 12:31:17;;;;;;;54.9;49;;;;;;;13.94;61.99609;953.0568;;;;
2019/04/10 12:33:43;;;;;;;54.9;48.9;;;;;;;14.07;61.13281;953.1036;;;;
2019/04/10 12:36:10;;;;;;;54.3;48.7;;;;;;;14.22;61.2002;953.0117;;;;
2019/04/10 12:38:33;;;;;;;54.5;48.6;;;;;;;13.89;62.51074;953.0446;;;;
2019/04/10 12:40:59;;;;;;;53.4;47.8;;;;;;;14.09;60.24121;953.0312;;;;
2019/04/10 12:43:24;;;;;;;53.9;48.1;;;;;;;14.01;60.38281;953.0178;;;;
2019/04/10 12:45:49;;;;;;;53.9;48.1;;;;;;;13.81;61.95508;953.0399;;;;
2019/04/10 12:48:14;;;;;;;55.7;49.7;;;;;;;13.66;64.10059;953.0609;;;;
2019/04/10 12:50:39;;;;;;;57.4;49.4;;;;;;;13.53;63.27051;953.0673;;;;
2019/04/10 12:53:04;;;;;;;56;50;;;;;;;13.36;64.03223;953.0554;;;;
2019/04/10 12:55:29;;;;;;;59.5;51.6;;;;;;;13.09;65.24316;953.0147;;;;
2019/04/10 12:57:55;;;;;;;56.5;50.4;;;;;;;12.96;67.61914;953.028;;;;
2019/04/10 13:00:22;;;;;;;57.9;51.7;;;;;;;12.96;67.37695;953.0541;;;;
2019/04/10 13:02:45;;;;;;;58;51.7;;;;;;;13.01;66.21582;953.0836;;;;
2019/04/10 13:05:11;;;;;;;57.4;51.1;;;;;;;13.04;65.71094;953.0239;;;;
2019/04/10 13:07:39;;;;;;;58.8;51.6;;;;;;;13.11;68.04883;952.9599;;;;
2019/04/10 13:10:05;;;;;;;54.4;48.5;;;;;;;13.36;65.37598;953.0161;;;;
2019/04/10 13:12:31;;;;;;;54.2;48.4;;;;;;;13.52;62.77051;953.0552;;;;
2019/04/10 13:14:56;;;;;;;55.4;49.2;;;;;;;13.54;63.0166;953.0876;;;;
2019/04/10 13:17:21;;;;;;;55.9;48.1;;;;;;;13.65;60.78516;953.0185;;;;
2019/04/10 13:19:46;;;;;;;55.6;47.6;;;;;;;13.58;60.57715;952.9916;;;;
2019/04/10 13:22:12;;;;;;;54.4;48.1;;;;;;;13.36;61.83301;952.9497;;;;
2019/04/10 13:24:37;;;;;;;55.2;49.1;;;;;;;13.18;63.05664;952.9916;;;;
2019/04/10 13:27:02;;;;;;;54.2;47.4;;;;;;;13.13;61.50977;952.9794;;;;
2019/04/10 13:29:27;;;;;;;54.5;48.5;;;;;;;13.01;62.43066;952.9796;;;;
2019/04/10 13:31:52;;;;;;;54.7;48.6;;;;;;;12.92;63.12402;952.9758;;;;
2019/04/10 13:34:17;;;;;;;54.5;48.7;;;;;;;12.94;63.47363;953.0214;;;;
2019/04/10 13:36:42;;;;;;;56.9;49.6;;;;;;;12.83;64.19727;952.9373;;;;
2019/04/10 13:39:07;;;;;;;56.2;50.2;;;;;;;12.67;65.80566;952.9504;;;;
2019/04/10 13:41:32;;;;;;;58.1;51.8;;;;;;;12.47;66.19043;953.072;;;;
2019/04/10 13:43:58;;;;;;;57.1;51;;;;;;;12.48;67.68457;953.0181;;;;
2019/04/10 13:46:23;;;;;;;57.6;51.4;;;;;;;12.55;67.15039;953.0288;;;;
2019/04/10 13:48:48;;;;;;;57.8;51.6;;;;;;;12.65;66.85352;952.9658;;;;
2019/04/10 13:51:13;;;;;;;58.2;51.5;;;;;;;12.65;67.64063;953.0313;;;;
2019/04/10 13:53:38;;;;;;;59.1;51.6;;;;;;;12.54;67.78516;953.091;;;;
2019/04/10 13:56:04;;;;;;;57.8;50.6;;;;;;;12.73;64.56445;953.0223;;;;
2019/04/10 13:58:28;;;;;;;56.3;49.8;;;;;;;12.69;64.84863;953.0003;;;;
2019/04/10 14:00:53;;;;;;;58.6;50.8;;;;;;;12.69;66.0166;952.966;;;;
2019/04/10 14:03:19;;;;;;;58.8;51.2;;;;;;;12.67;65.33105;952.9202;;;;
2019/04/10 14:05:44;;;;;;;57.4;49.6;;;;;;;12.73;64.4375;952.9961;;;;
2019/04/10 14:08:09;;;;;;;56.8;50.6;;;;;;;12.72;66.77344;953.0322;;;;
2019/04/10 14:10:34;;;;;;;58.4;50.7;;;;;;;12.63;66.48242;953.0764;;;;
2019/04/10 14:12:59;;;;;;;57.2;49.6;;;;;;;12.8;64.66797;953.0192;;;;
2019/04/10 14:15:25;;;;;;;57.7;49.9;;;;;;;12.81;65.67383;953.1017;;;;
2019/04/10 14:17:49;;;;;;;57.1;49.8;;;;;;;12.87;64.40039;953.0902;;;;
2019/04/10 14:20:15;;;;;;;56;49.6;;;;;;;12.86;64.375;953.1219;;;;
2019/04/10 14:22:47;;;;;;;54.7;48.2;;;;;;;12.91;64.02441;953.0639;;;;
2019/04/10 14:25:11;;;;;;;54.3;48.4;;;;;;;12.98;63.19141;953.0564;;;;
2019/04/10 14:27:30;;;;;;;54.3;48.4;;;;;;;12.98;63.13184;953.0614;;;;
2019/04/10 14:29:55;;;;;;;56.2;49;;;;;;;12.86;63.64551;953.1309;;;;
2019/04/10 14:32:28;;;;;;;54;48;;;;;;;12.84;63.82813;953.1287;;;;
2019/04/10 14:34:46;;;;;;;54.1;48.2;;;;;;;12.93;63.53027;953.1711;;;;
2019/04/10 14:37:12;;;;;;;53.3;47.6;;;;;;;12.9;64.46387;953.1262;;;;
2019/04/10 14:39:36;;;;;;;52.9;47.1;;;;;;;12.92;65.04395;953.1415;;;;
2019/04/10 14:42:01;;;;;;;54.1;47.5;;;;;;;13.05;62.45898;953.1057;;;;
2019/04/10 14:44:26;;;;;;;52.8;46.8;;;;;;;12.96;63.09473;953.1417;;;;
2019/04/10 14:46:51;;;;;;;51.9;45.4;;;;;;;12.95;62.5498;953.1472;;;;
2019/04/10 14:49:16;;;;;;;52.2;46.2;;;;;;;12.87;63.55566;953.1516;;;;
2019/04/10 14:51:42;;;;;;;52.1;46.4;;;;;;;12.77;64.87207;953.1661;;;;
2019/04/10 14:54:07;;;;;;;55.7;46.7;;;;;;;12.75;63.21484;953.1638;;;;
2019/04/10 14:56:32;;;;;;;49.3;44;;;;;;;12.84;64.89258;953.2031;;;;
2019/04/10 14:58:57;;;;;;;50.5;44.9;;;;;;;12.86;63.02246;953.1827;;;;
2019/04/10 15:01:22;;;;;;;50.9;45;;;;;;;12.82;63.9873;953.2227;;;;
2019/04/10 15:03:47;;;;;;;49.6;43.5;;;;;;;12.81;61.89258;953.2537;;;;
2019/04/10 15:06:12;;;;;;;49;43.7;;;;;;;12.82;62.86719;953.261;;;;